createdAt,value
2019-02-12T00:01:09.701Z,96345.02
2019-02-12T00:03:38.264Z,96355.00
2019-02-12T00:06:06.852Z,96353.53
2019-02-12T00:08:42.371Z,96362.32
2019-02-12T00:11:10.900Z,96370.50
2019-02-12T00:13:43.003Z,96375.59
2019-02-12T00:16:11.627Z,96379.16
2019-02-12T00:18:46.043Z,96378.90
2019-02-12T00:21:15.162Z,96382.28
2019-02-12T00:23:53.642Z,96389.39
2019-02-12T00:26:24.093Z,96384.91
2019-02-12T00:28:53.641Z,96388.77
2019-02-12T00:31:24.222Z,96397.97
2019-02-12T00:33:58.884Z,96403.57
2019-02-12T00:36:33.361Z,96415.56
2019-02-12T00:39:01.888Z,96416.56
2019-02-12T00:41:31.390Z,96423.68
2019-02-12T00:44:00.034Z,96420.41
2019-02-12T00:46:39.547Z,96424.04
2019-02-12T00:49:08.102Z,96436.20
2019-02-12T00:51:51.842Z,96434.34
2019-02-12T00:54:58.890Z,96435.52
2019-02-12T00:57:29.429Z,96433.69
2019-02-12T00:59:58.408Z,96442.48
2019-02-12T01:02:27.961Z,96447.03
2019-02-12T01:04:56.538Z,96464.11
2019-02-12T01:07:27.017Z,96472.84
2019-02-12T01:09:56.458Z,96467.91
2019-02-12T01:12:25.596Z,96465.20
2019-02-12T01:14:55.239Z,96461.34
2019-02-12T01:17:33.102Z,96457.48
2019-02-12T01:20:02.261Z,96453.80
2019-02-12T01:22:34.432Z,96462.84
2019-02-12T01:25:03.018Z,96465.89
2019-02-12T01:27:31.598Z,96472.49
2019-02-12T01:30:00.223Z,96477.55
2019-02-12T01:32:32.926Z,96477.73
2019-02-12T01:35:01.519Z,96482.86
2019-02-12T01:37:38.186Z,96488.19
2019-02-12T01:40:06.901Z,96486.75
2019-02-12T01:42:43.421Z,96489.68
2019-02-12T01:45:12.619Z,96484.22
2019-02-12T01:47:46.195Z,96485.14
2019-02-12T01:50:15.691Z,96488.36
2019-02-12T01:52:45.348Z,96492.66
2019-02-12T01:55:22.428Z,96501.84
2019-02-12T01:58:12.944Z,96505.83
2019-02-12T02:00:41.607Z,96513.50
2019-02-12T02:03:18.997Z,96514.16
2019-02-12T02:05:49.534Z,96516.50
2019-02-12T02:08:21.858Z,96517.92
2019-02-12T02:10:50.857Z,96516.70
2019-02-12T02:13:19.394Z,96523.50
2019-02-12T02:15:51.862Z,96519.11
2019-02-12T02:18:22.898Z,96506.72
2019-02-12T02:20:52.006Z,96503.73
2019-02-12T02:23:20.560Z,96510.22
2019-02-12T02:25:54.455Z,96508.00
2019-02-12T02:28:22.976Z,96510.34
2019-02-12T02:30:52.012Z,96507.59
2019-02-12T02:33:22.520Z,96513.59
2019-02-12T02:36:15.648Z,96518.75
2019-02-12T02:38:47.472Z,96537.67
2019-02-12T02:41:24.349Z,96535.69
2019-02-12T02:43:54.465Z,96541.33
2019-02-12T02:46:23.020Z,96544.56
2019-02-12T02:48:59.924Z,96538.63
2019-02-12T02:51:28.467Z,96538.17
2019-02-12T02:54:00.476Z,96531.16
2019-02-12T02:56:29.600Z,96532.44
2019-02-12T02:59:19.801Z,96517.42
2019-02-12T03:01:50.245Z,96517.89
2019-02-12T03:04:18.773Z,96522.77
2019-02-12T03:06:50.418Z,96510.86
2019-02-12T03:09:22.599Z,96513.79
2019-02-12T03:16:45.044Z,96517.94
2019-02-12T03:19:14.134Z,96516.20
2019-02-12T03:21:44.207Z,96525.28
2019-02-12T03:24:14.195Z,96526.68
2019-02-12T03:26:54.407Z,96522.37
2019-02-12T03:29:27.478Z,96526.97
2019-02-12T03:31:56.555Z,96530.95
2019-02-12T03:37:01.318Z,96543.95
2019-02-12T03:39:30.360Z,96550.25
2019-02-12T03:42:00.078Z,96553.28
2019-02-12T03:44:30.207Z,96560.88
2019-02-12T03:46:59.232Z,96566.18
2019-02-12T03:52:12.606Z,96576.73
2019-02-12T03:54:35.079Z,96578.11
2019-02-12T03:57:04.129Z,96587.23
2019-02-12T03:59:33.170Z,96577.06
2019-02-12T04:02:03.291Z,96572.99
2019-02-12T04:04:32.349Z,96575.59
2019-02-12T04:07:01.404Z,96581.23
2019-02-12T04:12:06.125Z,96583.16
2019-02-12T04:14:36.387Z,96581.01
2019-02-12T04:19:43.693Z,96586.95
2019-02-12T04:22:22.300Z,96596.33
2019-02-12T04:24:44.644Z,96603.18
2019-02-12T04:27:13.678Z,96601.31
2019-02-12T04:29:42.709Z,96602.60
2019-02-12T04:32:12.718Z,96610.77
2019-02-12T04:34:44.367Z,96601.05
2019-02-12T04:37:14.412Z,96599.29
2019-02-12T04:39:43.427Z,96594.98
2019-02-12T04:42:15.444Z,96590.80
2019-02-12T04:44:44.488Z,96606.80
2019-02-12T04:47:15.183Z,96606.28
2019-02-12T04:49:44.275Z,96599.45
2019-02-12T04:52:13.367Z,96596.34
2019-02-12T04:57:20.515Z,96606.52
2019-02-12T04:59:49.578Z,96612.72
2019-02-12T05:02:18.598Z,96613.47
2019-02-12T05:04:47.643Z,96609.03
2019-02-12T05:07:17.605Z,96609.06
2019-02-12T05:09:46.969Z,96611.63
2019-02-12T05:12:16.927Z,96617.41
2019-02-12T05:17:21.773Z,96624.85
2019-02-12T05:19:51.299Z,96624.41
2019-02-12T05:22:21.273Z,96625.73
2019-02-12T05:24:50.301Z,96623.91
2019-02-12T05:27:20.693Z,96630.20
2019-02-12T05:29:49.767Z,96626.13
2019-02-12T05:32:18.798Z,96626.39
2019-02-12T05:34:47.857Z,96628.67
2019-02-12T05:37:16.880Z,96636.38
2019-02-12T05:39:46.421Z,96643.08
2019-02-12T05:42:16.459Z,96644.24
2019-02-12T05:44:45.501Z,96638.02
2019-02-12T05:47:15.471Z,96637.20
2019-02-12T05:49:44.508Z,96637.20
2019-02-12T05:52:16.381Z,96634.36
2019-02-12T05:54:45.440Z,96631.56
2019-02-12T05:57:14.484Z,96639.86
2019-02-12T05:59:46.978Z,96650.13
2019-02-12T06:02:14.797Z,96652.65
2019-02-12T06:04:43.825Z,96669.27
2019-02-12T06:07:16.364Z,96675.28
2019-02-12T06:09:45.419Z,96662.37
2019-02-12T06:12:17.251Z,96668.69
2019-02-12T06:14:46.325Z,96670.56
2019-02-12T06:17:16.359Z,96672.39
2019-02-12T06:19:45.429Z,96675.03
2019-02-12T06:22:15.284Z,96678.73
2019-02-12T06:24:46.623Z,96682.72
2019-02-12T06:27:16.934Z,96676.86
2019-02-12T06:29:46.157Z,96691.60
2019-02-12T06:32:16.007Z,96689.58
2019-02-12T06:34:47.436Z,96691.74
2019-02-12T06:37:16.972Z,96692.30
2019-02-12T06:39:47.091Z,96696.59
2019-02-12T06:42:16.083Z,96694.23
2019-02-12T06:45:01.058Z,96696.98
2019-02-12T06:47:31.540Z,96698.37
2019-02-12T06:50:00.580Z,96700.25
2019-02-12T06:52:30.921Z,96693.28
2019-02-12T06:55:01.832Z,96700.84
2019-02-12T06:57:33.457Z,96699.40
2019-02-12T07:00:02.568Z,96707.87
2019-02-12T07:02:52.635Z,96711.22
2019-02-12T07:17:43.451Z,96732.91
2019-02-12T07:20:19.291Z,96733.25
2019-02-12T07:26:35.182Z,96747.20
2019-02-12T07:41:20.443Z,96787.52
2019-02-12T07:53:13.403Z,96785.56
2019-02-12T07:55:48.163Z,96787.14
2019-02-12T08:02:02.095Z,96799.84
2019-02-12T08:10:35.693Z,96815.73
2019-02-12T08:13:17.349Z,96812.06
2019-02-12T08:16:17.886Z,96806.44
2019-02-12T08:22:14.157Z,96814.00
2019-02-12T08:25:13.683Z,96817.92
2019-02-12T08:28:08.100Z,96813.73
2019-02-12T08:30:44.377Z,96818.05
2019-02-12T08:36:39.243Z,96818.30
2019-02-12T08:42:32.263Z,96822.84
2019-02-12T08:53:52.800Z,96836.45
2019-02-12T08:56:24.779Z,96836.20
2019-02-12T08:59:19.874Z,96842.08
2019-02-12T09:01:56.507Z,96839.91
2019-02-12T09:04:35.022Z,96838.78
2019-02-12T09:12:22.713Z,96842.19
2019-02-12T09:15:19.148Z,96840.22
2019-02-12T09:21:10.132Z,96850.59
2019-02-12T09:24:00.400Z,96850.78
2019-02-12T09:41:01.639Z,96874.50
2019-02-12T09:55:27.672Z,96882.08
2019-02-12T09:58:11.303Z,96880.42
2019-02-12T10:00:46.213Z,96877.22
2019-02-12T10:12:42.581Z,96879.91
2019-02-12T10:15:48.051Z,96881.02
2019-02-12T10:30:23.844Z,96893.88
2019-02-12T10:35:29.818Z,96898.95
2019-02-12T10:37:58.855Z,96900.26
2019-02-12T10:40:28.859Z,96899.30
2019-02-12T10:43:06.636Z,96898.55
2019-02-12T10:48:12.249Z,96892.05
2019-02-12T10:50:41.292Z,96892.19
2019-02-12T10:53:11.084Z,96890.70
2019-02-12T10:55:40.133Z,96883.77
2019-02-12T10:58:09.697Z,96884.70
2019-02-12T11:00:38.926Z,96884.90
2019-02-12T11:03:07.959Z,96879.31
2019-02-12T11:05:45.532Z,96885.61
2019-02-12T11:08:14.586Z,96892.83
2019-02-12T11:10:45.120Z,96889.32
2019-02-12T11:13:12.650Z,96892.28
2019-02-12T11:15:41.691Z,96887.21
2019-02-12T11:18:11.258Z,96888.59
2019-02-12T11:20:40.352Z,96894.86
2019-02-12T11:23:10.920Z,96897.47
2019-02-12T11:25:42.542Z,96900.03
2019-02-12T11:28:11.610Z,96899.75
2019-02-12T11:30:41.428Z,96901.34
2019-02-12T11:33:23.475Z,96895.98
2019-02-12T11:35:54.647Z,96891.74
2019-02-12T11:38:24.928Z,96883.42
2019-02-12T11:40:59.720Z,96892.63
2019-02-12T11:43:30.508Z,96889.03
2019-02-12T11:48:34.765Z,96877.39
2019-02-12T11:51:05.560Z,96877.77
2019-02-12T11:53:38.344Z,96882.83
2019-02-12T12:01:23.486Z,96878.11
2019-02-12T12:03:53.334Z,96873.23
2019-02-12T12:09:04.087Z,96868.23
2019-02-12T12:11:40.430Z,96873.08
2019-02-12T12:14:09.464Z,96870.44
2019-02-12T12:16:39.206Z,96872.19
2019-02-12T12:19:08.362Z,96882.58
2019-02-12T12:21:37.422Z,96887.92
2019-02-12T12:24:06.487Z,96881.78
2019-02-12T12:26:35.520Z,96889.27
2019-02-12T12:29:04.964Z,96885.37
2019-02-12T12:34:09.736Z,96883.25
2019-02-12T12:41:58.244Z,96886.47
2019-02-12T12:44:27.293Z,96891.72
2019-02-12T12:46:57.336Z,96890.00
2019-02-12T12:52:02.100Z,96899.16
2019-02-12T12:54:32.023Z,96897.28
2019-02-12T12:57:02.010Z,96899.89
2019-02-12T12:59:31.050Z,96899.69
2019-02-12T13:02:00.626Z,96903.49
2019-02-12T13:04:29.708Z,96901.98
2019-02-12T13:07:02.681Z,96910.56
2019-02-12T13:09:33.803Z,96907.41
2019-02-12T13:14:39.988Z,96908.47
2019-02-12T13:17:09.011Z,96911.40
2019-02-12T13:19:38.034Z,96916.08
2019-02-12T13:22:07.712Z,96917.53
2019-02-12T13:24:37.151Z,96918.55
2019-02-12T13:27:06.191Z,96917.98
2019-02-12T13:29:35.323Z,96918.19
2019-02-12T13:32:04.346Z,96913.31
2019-02-12T13:34:34.031Z,96911.42
2019-02-12T13:39:18.264Z,96918.29
2019-02-12T13:44:34.883Z,96919.58
2019-02-12T13:47:03.944Z,96921.11
2019-02-12T13:49:33.955Z,96926.58
2019-02-12T13:52:03.009Z,96922.86
2019-02-12T13:54:33.327Z,96936.02
2019-02-12T13:57:02.499Z,96930.33
2019-02-12T13:59:33.628Z,96927.20
2019-02-12T14:04:37.275Z,96921.46
2019-02-12T14:07:12.702Z,96926.48
2019-02-12T14:12:19.426Z,96928.31
2019-02-12T14:14:48.442Z,96927.77
2019-02-12T14:17:17.502Z,96926.28
2019-02-12T14:19:47.090Z,96931.31
2019-02-12T14:22:16.152Z,96934.63
2019-02-12T14:24:46.116Z,96943.92
2019-02-12T14:27:15.970Z,96947.34
2019-02-12T14:29:45.230Z,96951.31
2019-02-12T14:32:14.253Z,96953.05
2019-02-12T14:34:48.739Z,96952.94
2019-02-12T14:37:17.780Z,96950.65
2019-02-12T14:39:47.435Z,96959.98
2019-02-12T14:42:16.495Z,96958.48
2019-02-12T14:44:45.623Z,96959.45
2019-02-12T14:47:14.653Z,96956.80
2019-02-12T14:49:43.675Z,96957.30
2019-02-12T14:52:13.314Z,96964.56
2019-02-12T14:54:47.401Z,96967.56
2019-02-12T14:57:21.065Z,96962.27
2019-02-12T15:02:26.169Z,96968.62
2019-02-12T15:05:00.393Z,96972.18
2019-02-12T15:07:24.252Z,96974.17
2019-02-12T15:09:55.291Z,96968.78
2019-02-12T15:12:24.799Z,96960.84
2019-02-12T15:14:53.835Z,96963.44
2019-02-12T15:17:22.891Z,96954.77
2019-02-12T15:19:51.934Z,96962.20
2019-02-12T15:22:25.194Z,96961.30
2019-02-12T15:24:54.489Z,96959.84
2019-02-12T15:27:30.856Z,96960.83
2019-02-12T15:29:59.923Z,96962.39
2019-02-12T15:32:32.635Z,96960.45
2019-02-12T15:35:02.493Z,96959.45
2019-02-12T15:37:33.443Z,96960.25
2019-02-12T15:40:02.486Z,96961.20
2019-02-12T15:42:31.510Z,96960.12
2019-02-12T15:45:02.449Z,96963.70
2019-02-12T15:47:33.411Z,96963.78
2019-02-12T15:50:02.439Z,96964.80
2019-02-12T15:52:33.246Z,96960.03
2019-02-12T15:55:02.277Z,96962.77
2019-02-12T15:57:40.532Z,96964.08
2019-02-12T16:00:18.648Z,96966.57
2019-02-12T16:02:47.454Z,96966.44
2019-02-12T16:05:16.503Z,96967.05
2019-02-12T16:07:47.480Z,96967.86
2019-02-12T16:10:16.966Z,96971.75
2019-02-12T16:12:46.606Z,96973.91
2019-02-12T16:15:16.032Z,96974.80
2019-02-12T16:18:00.710Z,96980.33
2019-02-12T16:20:30.985Z,96984.09
2019-02-12T16:23:00.723Z,96992.63
2019-02-12T16:25:30.704Z,96989.30
2019-02-12T16:27:59.750Z,96992.20
2019-02-12T16:30:33.231Z,96991.31
2019-02-12T16:33:02.298Z,96996.50
2019-02-12T16:35:31.314Z,97005.14
2019-02-12T16:38:00.367Z,97018.55
2019-02-12T16:40:35.351Z,97015.51
2019-02-12T16:43:06.412Z,97015.00
2019-02-12T16:48:30.990Z,97033.29
2019-02-12T16:51:01.002Z,97039.66
2019-02-12T16:53:30.032Z,97044.25
2019-02-12T16:56:07.874Z,97046.47
2019-02-12T16:58:28.916Z,97049.63
2019-02-12T17:00:57.959Z,97055.39
2019-02-12T17:03:33.683Z,97054.65
2019-02-12T17:06:03.175Z,97058.89
2019-02-12T17:08:32.208Z,97060.28
2019-02-12T17:11:01.269Z,97069.58
2019-02-12T17:13:30.345Z,97076.19
2019-02-12T17:16:00.082Z,97078.23
2019-02-12T17:18:29.131Z,97081.25
2019-02-12T17:20:58.220Z,97081.09
2019-02-12T17:23:27.288Z,97086.38
2019-02-12T17:25:56.320Z,97087.91
2019-02-12T17:28:26.601Z,97089.36
2019-02-12T17:30:59.483Z,97088.42
2019-02-12T17:33:28.503Z,97092.95
2019-02-12T17:35:57.943Z,97098.37
2019-02-12T17:38:27.003Z,97101.38
2019-02-12T17:40:56.078Z,97106.35
2019-02-12T17:43:25.106Z,97106.09
2019-02-12T17:46:02.308Z,97109.13
2019-02-12T17:48:34.625Z,97111.30
2019-02-12T17:51:03.671Z,97116.39
2019-02-12T17:53:32.715Z,97116.48
2019-02-12T17:56:01.747Z,97118.55
2019-02-12T17:58:30.797Z,97119.86
2019-02-12T18:01:00.456Z,97113.80
2019-02-12T18:03:29.524Z,97116.50
2019-02-12T18:05:58.573Z,97121.03
2019-02-12T18:08:28.165Z,97121.63
2019-02-12T18:11:01.259Z,97120.61
2019-02-12T18:13:30.321Z,97122.00
2019-02-12T18:18:34.567Z,97122.50
2019-02-12T18:21:04.209Z,97122.20
2019-02-12T18:23:34.266Z,97128.26
2019-02-12T18:26:03.355Z,97135.67
2019-02-12T18:28:32.442Z,97137.55
2019-02-12T18:33:37.946Z,97145.97
2019-02-12T18:36:07.093Z,97147.21
2019-02-12T18:38:36.119Z,97147.53
2019-02-12T18:41:07.104Z,97147.66
2019-02-12T18:46:11.685Z,97150.40
2019-02-12T18:51:16.466Z,97156.47
2019-02-12T18:53:47.398Z,97158.22
2019-02-12T18:56:16.480Z,97165.20
2019-02-12T18:58:48.663Z,97162.97
2019-02-12T19:01:17.719Z,97163.14
2019-02-12T19:03:46.775Z,97166.91
2019-02-12T19:06:16.290Z,97165.81
2019-02-12T19:08:47.400Z,97165.80
2019-02-12T19:11:16.475Z,97165.44
2019-02-12T19:13:53.856Z,97168.41
2019-02-12T19:16:22.935Z,97173.05
2019-02-12T19:18:52.109Z,97174.23
2019-02-12T19:21:21.168Z,97173.58
2019-02-12T19:23:50.405Z,97169.61
2019-02-12T19:26:20.270Z,97168.30
2019-02-12T19:28:49.351Z,97175.27
2019-02-12T19:31:19.348Z,97177.74
2019-02-12T19:33:55.132Z,97180.40
2019-02-12T19:36:24.298Z,97183.78
2019-02-12T19:38:53.683Z,97190.00
2019-02-12T19:41:22.769Z,97184.67
2019-02-12T19:43:52.837Z,97184.38
2019-02-12T19:46:23.003Z,97182.45
2019-02-12T19:51:31.745Z,97190.11
2019-02-12T19:54:00.794Z,97188.23
2019-02-12T19:56:29.843Z,97196.00
2019-02-12T19:58:59.480Z,97192.08
2019-02-12T20:01:28.582Z,97197.52
2019-02-12T20:03:57.680Z,97194.53
2019-02-12T20:06:27.611Z,97199.76
2019-02-12T20:08:57.636Z,97192.33
2019-02-12T20:11:28.179Z,97196.59
2019-02-12T20:16:34.422Z,97202.69
2019-02-12T20:21:45.498Z,97201.64
2019-02-12T20:24:14.991Z,97206.02
2019-02-12T20:26:44.135Z,97203.30
2019-02-12T20:29:13.187Z,97199.69
2019-02-12T20:31:43.869Z,97203.02
2019-02-12T20:34:12.954Z,97201.88
2019-02-12T20:36:42.004Z,97201.29
2019-02-12T20:39:11.089Z,97206.95
2019-02-12T20:41:40.165Z,97209.36
2019-02-12T20:44:09.745Z,97208.80
2019-02-12T20:46:38.824Z,97207.58
2019-02-12T20:49:09.830Z,97205.92
2019-02-12T20:51:39.883Z,97206.52
2019-02-12T20:54:08.915Z,97208.05
2019-02-12T20:56:39.990Z,97208.59
2019-02-12T20:59:09.058Z,97208.73
2019-02-12T21:01:40.054Z,97209.83
2019-02-12T21:04:09.602Z,97206.77
2019-02-12T21:06:38.643Z,97204.44
2019-02-12T21:09:07.715Z,97201.34
2019-02-12T21:11:36.755Z,97203.24
2019-02-12T21:14:06.307Z,97205.56
2019-02-12T21:16:35.851Z,97202.45
2019-02-12T21:19:05.179Z,97200.56
2019-02-12T21:21:35.403Z,97195.77
2019-02-12T21:24:06.150Z,97189.36
2019-02-12T21:26:35.281Z,97180.46
2019-02-12T21:29:06.742Z,97185.50
2019-02-12T21:31:35.791Z,97187.41
2019-02-12T21:34:04.860Z,97191.52
2019-02-12T21:39:19.777Z,97199.34
2019-02-12T21:41:49.575Z,97194.44
2019-02-12T21:44:19.977Z,97199.57
2019-02-12T21:46:50.668Z,97197.63
2019-02-12T21:49:21.411Z,97203.94
2019-02-12T21:54:27.567Z,97203.30
2019-02-12T21:56:57.166Z,97206.64
2019-02-12T21:59:26.227Z,97206.34
2019-02-12T22:04:35.471Z,97204.83
2019-02-12T22:07:04.826Z,97205.19
2019-02-12T22:10:26.385Z,97208.89
2019-02-12T22:12:55.664Z,97205.84
2019-02-12T22:15:28.812Z,97198.86
2019-02-12T22:17:58.225Z,97206.17
2019-02-12T22:20:32.367Z,97205.16
2019-02-12T22:23:02.084Z,97206.58
2019-02-12T22:25:32.269Z,97204.05
2019-02-12T22:28:03.051Z,97206.27
2019-02-12T22:30:36.701Z,97212.79
2019-02-12T22:33:06.434Z,97212.83
2019-02-12T22:35:42.545Z,97214.41
2019-02-12T22:38:11.845Z,97215.91
2019-02-12T22:40:40.910Z,97215.71
2019-02-12T22:43:11.076Z,97219.78
2019-02-12T22:45:40.301Z,97227.19
2019-02-12T22:48:19.441Z,97226.74
2019-02-12T22:50:48.486Z,97223.78
2019-02-12T22:53:17.648Z,97224.55
2019-02-12T22:55:46.724Z,97232.50
2019-02-12T22:58:15.779Z,97227.50
2019-02-12T23:00:54.813Z,97231.37
2019-02-12T23:03:24.044Z,97228.64
2019-02-12T23:05:53.279Z,97221.31
2019-02-12T23:08:23.353Z,97217.67
2019-02-12T23:13:39.835Z,97208.89
2019-02-12T23:16:09.103Z,97203.72
2019-02-12T23:18:43.383Z,97204.59
2019-02-12T23:21:12.937Z,97203.70
2019-02-12T23:23:42.039Z,97195.77
2019-02-12T23:26:12.103Z,97193.30
2019-02-12T23:28:41.328Z,97195.36
2019-02-12T23:31:11.816Z,97194.44
2019-02-12T23:38:56.991Z,97194.55
2019-02-12T23:41:26.151Z,97198.40
2019-02-12T23:43:55.209Z,97198.59
2019-02-12T23:46:24.858Z,97203.14
2019-02-12T23:51:35.490Z,97205.50
2019-02-12T23:54:04.530Z,97201.09
2019-02-12T23:56:36.974Z,97200.34
2019-02-12T23:59:06.731Z,97202.35
